Time;durP1;ratioP1;P1;durP2;ratioP2;P2;SDS_P1;SDS_P2;PMS_P1;PMS_P2;Temp;Humidity;BMP_temperature;BMP_pressure;BME280_temperature;BME280_humidity;BME280_pressure;Samples;Min_cycle;Max_cycle;Signal;HPM_P1;HPM_P2
2023/03/15 00:00:10;;;;;;;10.73;2.70;;;;;;;;;;5035328;28;20041;-76
2023/03/15 00:02:37;;;;;;;13.40;2.67;;;;;;;;;;5034792;28;20072;-75
2023/03/15 00:05:03;;;;;;;10.77;2.53;;;;;;;;;;5052677;28;20517;-76
2023/03/15 00:07:30;;;;;;;7.90;2.42;;;;;;;;;;5066009;28;20130;-76
2023/03/15 00:09:56;;;;;;;9.52;2.38;;;;;;;;;;5037453;28;20540;-76
2023/03/15 00:12:22;;;;;;;12.32;2.40;;;;;;;;;;5072520;28;20063;-75
2023/03/15 00:14:49;;;;;;;13.38;2.63;;;;;;;;;;5072837;28;20119;-76
2023/03/15 00:17:15;;;;;;;8.82;2.55;;;;;;;;;;5072791;28;20067;-75
2023/03/15 00:19:41;;;;;;;9.10;2.67;;;;;;;;;;5072279;28;20528;-76
2023/03/15 00:22:07;;;;;;;10.38;2.33;;;;;;;;;;5072584;28;20045;-76
2023/03/15 00:24:33;;;;;;;9.40;2.50;;;;;;;;;;5052901;28;20040;-76
2023/03/15 00:26:59;;;;;;;13.95;3.00;;;;;;;;;;5072676;28;20048;-76
2023/03/15 00:29:25;;;;;;;10.40;2.63;;;;;;;;;;5072287;28;20489;-76
2023/03/15 00:31:51;;;;;;;10.98;2.50;;;;;;;;;;5072726;28;20446;-75
2023/03/15 00:34:22;;;;;;;8.25;2.50;;;;;;;;;;5072236;28;20041;-76
2023/03/15 00:36:48;;;;;;;15.23;2.65;;;;;;;;;;5072344;28;20052;-76
2023/03/15 00:39:15;;;;;;;12.77;2.90;;;;;;;;;;5072469;28;20043;-76
2023/03/15 00:41:44;;;;;;;15.63;2.65;;;;;;;;;;5072827;28;20350;-75
2023/03/15 00:44:10;;;;;;;7.20;2.38;;;;;;;;;;5037152;28;20057;-76
2023/03/15 00:46:36;;;;;;;11.90;2.28;;;;;;;;;;5049682;28;20115;-76
2023/03/15 00:49:03;;;;;;;15.48;2.65;;;;;;;;;;5070737;28;20515;-76
2023/03/15 00:51:29;;;;;;;9.80;2.58;;;;;;;;;;5071378;28;20044;-75
2023/03/15 00:53:55;;;;;;;14.70;2.40;;;;;;;;;;5071675;28;20040;-76
2023/03/15 00:56:26;;;;;;;10.60;2.42;;;;;;;;;;5069316;28;20120;-76
2023/03/15 00:58:52;;;;;;;9.70;2.20;;;;;;;;;;5069916;28;20128;-76
2023/03/15 01:01:20;;;;;;;14.88;2.80;;;;;;;;;;5073362;28;20050;-75
2023/03/15 01:03:46;;;;;;;13.38;2.40;;;;;;;;;;5075921;28;20158;-76
2023/03/15 01:06:16;;;;;;;12.30;2.63;;;;;;;;;;5076254;28;20045;-76
2023/03/15 01:08:42;;;;;;;8.00;2.47;;;;;;;;;;5076002;28;20052;-75
2023/03/15 01:11:11;;;;;;;10.30;2.38;;;;;;;;;;5075187;28;20083;-76
2023/03/15 01:13:37;;;;;;;10.10;2.30;;;;;;;;;;5075806;28;20357;-75
2023/03/15 01:16:03;;;;;;;9.45;2.33;;;;;;;;;;5076291;28;20132;-76
2023/03/15 01:18:29;;;;;;;8.90;2.30;;;;;;;;;;5074375;28;20049;-76
2023/03/15 01:20:56;;;;;;;11.55;2.22;;;;;;;;;;5074967;28;20457;-76
2023/03/15 01:23:24;;;;;;;11.20;2.40;;;;;;;;;;5074130;28;20052;-76
2023/03/15 01:25:50;;;;;;;12.60;2.30;;;;;;;;;;5074748;28;20053;-76
2023/03/15 01:28:16;;;;;;;7.97;2.10;;;;;;;;;;5075649;28;20120;-75
2023/03/15 01:30:50;;;;;;;11.88;2.35;;;;;;;;;;5074602;28;20124;-76
2023/03/15 01:33:16;;;;;;;14.75;2.67;;;;;;;;;;5075235;28;20106;-76
2023/03/15 01:35:42;;;;;;;10.20;2.45;;;;;;;;;;5074739;28;20090;-76
2023/03/15 01:38:08;;;;;;;10.77;2.17;;;;;;;;;;5075244;28;20071;-76
2023/03/15 01:40:34;;;;;;;9.63;2.25;;;;;;;;;;5057697;28;20080;-75
2023/03/15 01:43:00;;;;;;;9.02;2.08;;;;;;;;;;5050133;28;20095;-76
2023/03/15 01:45:45;;;;;;;9.73;2.25;;;;;;;;;;5037769;28;20131;-76
2023/03/15 01:48:11;;;;;;;10.15;2.50;;;;;;;;;;5055088;28;20392;-76
2023/03/15 01:50:37;;;;;;;8.38;2.33;;;;;;;;;;5057919;28;20396;-76
2023/03/15 01:53:03;;;;;;;13.43;2.58;;;;;;;;;;5057006;28;20048;-76
2023/03/15 01:55:31;;;;;;;9.40;2.22;;;;;;;;;;5075588;28;20048;-76
2023/03/15 01:58:00;;;;;;;12.85;2.70;;;;;;;;;;5057290;28;20056;-76
2023/03/15 02:00:26;;;;;;;11.77;2.20;;;;;;;;;;5057461;28;20043;-76
2023/03/15 02:02:54;;;;;;;14.10;2.50;;;;;;;;;;5040182;28;20043;-76
2023/03/15 02:05:21;;;;;;;8.27;2.60;;;;;;;;;;5040897;28;20161;-76
2023/03/15 02:07:53;;;;;;;9.88;2.53;;;;;;;;;;5074826;28;20055;-76
2023/03/15 02:10:40;;;;;;;12.35;2.72;;;;;;;;;;5057099;28;20060;-76
2023/03/15 02:13:06;;;;;;;13.15;2.70;;;;;;;;;;5040203;28;20076;-76
2023/03/15 02:15:32;;;;;;;12.10;2.60;;;;;;;;;;5057380;28;20094;-76
2023/03/15 02:17:58;;;;;;;9.45;2.38;;;;;;;;;;5056937;28;20405;-76
2023/03/15 02:20:26;;;;;;;8.63;2.33;;;;;;;;;;5057221;28;20505;-75
2023/03/15 02:22:56;;;;;;;13.10;2.35;;;;;;;;;;5063037;28;20041;-76
2023/03/15 02:25:38;;;;;;;10.18;2.75;;;;;;;;;;5044838;28;20497;-75
2023/03/15 02:28:05;;;;;;;13.13;2.63;;;;;;;;;;5029428;28;20156;-76
2023/03/15 02:30:31;;;;;;;10.57;2.65;;;;;;;;;;5055807;28;20128;-76
2023/03/15 02:32:59;;;;;;;11.15;2.55;;;;;;;;;;5058595;28;20083;-75
2023/03/15 02:35:30;;;;;;;16.77;2.60;;;;;;;;;;5074647;28;20055;-76
2023/03/15 02:37:56;;;;;;;10.35;2.25;;;;;;;;;;5046279;28;20044;-76
2023/03/15 02:40:24;;;;;;;14.93;2.92;;;;;;;;;;5018606;28;20118;-76
2023/03/15 02:42:55;;;;;;;13.18;3.22;;;;;;;;;;5063255;28;20056;-76
2023/03/15 02:45:22;;;;;;;10.05;1.98;;;;;;;;;;5075012;28;20432;-75
2023/03/15 02:47:48;;;;;;;12.85;2.92;;;;;;;;;;5056133;28;20135;-76
2023/03/15 02:50:14;;;;;;;10.75;2.53;;;;;;;;;;5056433;28;20044;-76
2023/03/15 02:52:40;;;;;;;9.63;2.42;;;;;;;;;;5055831;28;20048;-76
2023/03/15 02:55:07;;;;;;;6.88;2.00;;;;;;;;;;5044549;28;20106;-76
2023/03/15 02:57:33;;;;;;;11.38;2.20;;;;;;;;;;5019793;28;20052;-75
2023/03/15 03:00:05;;;;;;;8.35;2.22;;;;;;;;;;5036232;28;20041;-76
2023/03/15 03:02:31;;;;;;;9.70;2.28;;;;;;;;;;5035837;28;20130;-76
2023/03/15 03:04:57;;;;;;;7.25;2.25;;;;;;;;;;5036271;28;20124;-76
2023/03/15 03:07:23;;;;;;;11.25;2.03;;;;;;;;;;5053446;28;20171;-75
2023/03/15 03:09:49;;;;;;;11.02;2.30;;;;;;;;;;5053549;28;20094;-76
2023/03/15 03:12:15;;;;;;;9.95;2.15;;;;;;;;;;5053668;28;20056;-75
2023/03/15 03:14:44;;;;;;;11.55;2.38;;;;;;;;;;5034704;28;20091;-76
2023/03/15 03:17:10;;;;;;;8.95;2.10;;;;;;;;;;5053070;28;20080;-76
2023/03/15 03:19:36;;;;;;;9.48;2.25;;;;;;;;;;5035911;28;20040;-76
2023/03/15 03:22:03;;;;;;;15.00;2.47;;;;;;;;;;5053691;28;20048;-76
2023/03/15 03:24:30;;;;;;;7.03;2.17;;;;;;;;;;5052871;28;20128;-76
2023/03/15 03:26:56;;;;;;;8.63;2.30;;;;;;;;;;5035897;28;20116;-76
2023/03/15 03:29:23;;;;;;;11.15;2.67;;;;;;;;;;5053232;28;20528;-76
2023/03/15 03:31:49;;;;;;;11.20;2.45;;;;;;;;;;5048657;28;20047;-76
2023/03/15 03:34:15;;;;;;;9.60;2.25;;;;;;;;;;5073472;28;20518;-76
2023/03/15 03:36:42;;;;;;;9.73;2.58;;;;;;;;;;5072478;28;20053;-76
2023/03/15 03:39:09;;;;;;;9.45;2.17;;;;;;;;;;5054157;28;20036;-76
2023/03/15 03:41:35;;;;;;;9.55;2.33;;;;;;;;;;5068676;28;20413;-76
2023/03/15 03:44:01;;;;;;;10.88;2.45;;;;;;;;;;5053358;28;20088;-76
2023/03/15 03:46:27;;;;;;;11.50;2.22;;;;;;;;;;5036444;28;20049;-76
2023/03/15 03:48:54;;;;;;;7.45;2.35;;;;;;;;;;5059317;28;20131;-76
2023/03/15 03:51:20;;;;;;;9.98;2.20;;;;;;;;;;5068737;28;20142;-76
2023/03/15 03:53:46;;;;;;;8.32;2.25;;;;;;;;;;5053720;28;20049;-76
2023/03/15 03:56:12;;;;;;;10.35;2.17;;;;;;;;;;5054986;28;20094;-75
2023/03/15 03:58:38;;;;;;;8.18;2.30;;;;;;;;;;5063870;28;20044;-76
2023/03/15 04:01:05;;;;;;;13.23;2.58;;;;;;;;;;5053191;28;20045;-76
2023/03/15 04:03:31;;;;;;;8.35;2.17;;;;;;;;;;5058620;28;20045;-75
2023/03/15 04:05:58;;;;;;;7.00;1.90;;;;;;;;;;5035157;28;20090;-75
2023/03/15 04:08:24;;;;;;;8.48;2.10;;;;;;;;;;5052419;28;20056;-76
2023/03/15 04:10:54;;;;;;;9.70;2.17;;;;;;;;;;5052836;28;20418;-75
2023/03/15 04:13:20;;;;;;;7.43;2.05;;;;;;;;;;5034399;28;20417;-76
2023/03/15 04:15:47;;;;;;;10.70;2.40;;;;;;;;;;5047363;28;20048;-75
2023/03/15 04:18:13;;;;;;;7.50;1.90;;;;;;;;;;5072808;28;20071;-75
2023/03/15 04:20:45;;;;;;;5.95;1.80;;;;;;;;;;5072873;28;20051;-76
2023/03/15 04:23:21;;;;;;;5.68;1.98;;;;;;;;;;5054521;28;20145;-76
2023/03/15 04:25:51;;;;;;;6.30;2.00;;;;;;;;;;5073001;28;20053;-76
2023/03/15 04:28:18;;;;;;;7.50;1.85;;;;;;;;;;5054263;28;20086;-76
2023/03/15 04:30:45;;;;;;;6.68;1.80;;;;;;;;;;5072555;28;20049;-76
2023/03/15 04:33:11;;;;;;;7.65;1.75;;;;;;;;;;5072196;28;20051;-77
2023/03/15 04:35:38;;;;;;;10.13;2.03;;;;;;;;;;5071684;28;20055;-76
2023/03/15 04:38:04;;;;;;;5.95;2.00;;;;;;;;;;5059729;28;20128;-76
2023/03/15 04:40:33;;;;;;;10.13;2.25;;;;;;;;;;5034498;28;20045;-76
2023/03/15 04:43:01;;;;;;;7.05;2.03;;;;;;;;;;5051940;28;20056;-76
2023/03/15 04:45:27;;;;;;;7.07;2.00;;;;;;;;;;5018209;28;20076;-76
2023/03/15 04:47:54;;;;;;;8.95;2.08;;;;;;;;;;5052000;28;20041;-76
2023/03/15 04:50:20;;;;;;;7.00;2.03;;;;;;;;;;5034665;28;20091;-77
2023/03/15 04:52:47;;;;;;;7.53;1.90;;;;;;;;;;5069458;28;20405;-76
2023/03/15 04:55:13;;;;;;;5.97;1.92;;;;;;;;;;5070907;28;20132;-76
2023/03/15 04:57:39;;;;;;;6.03;2.08;;;;;;;;;;5071923;28;20066;-76
2023/03/15 05:00:08;;;;;;;7.97;2.10;;;;;;;;;;5072740;28;20041;-76
2023/03/15 05:02:38;;;;;;;6.57;1.90;;;;;;;;;;5053884;28;20594;-76
2023/03/15 05:05:05;;;;;;;7.50;2.03;;;;;;;;;;5054488;28;20131;-76
2023/03/15 05:07:31;;;;;;;5.15;1.77;;;;;;;;;;5037663;28;20408;-76
2023/03/15 05:09:57;;;;;;;6.22;1.77;;;;;;;;;;5054033;28;20491;-76
2023/03/15 05:12:23;;;;;;;7.15;1.80;;;;;;;;;;5072193;28;20365;-76
2023/03/15 05:14:49;;;;;;;6.95;2.10;;;;;;;;;;5072071;28;20148;-76
2023/03/15 05:17:15;;;;;;;7.90;2.08;;;;;;;;;;5071924;28;20052;-76
2023/03/15 05:19:41;;;;;;;5.38;1.90;;;;;;;;;;5071981;28;20040;-75
2023/03/15 05:22:07;;;;;;;6.63;2.25;;;;;;;;;;5071900;28;20080;-76
2023/03/15 05:24:33;;;;;;;6.88;2.20;;;;;;;;;;5053723;28;20044;-76
2023/03/15 05:27:00;;;;;;;5.85;1.98;;;;;;;;;;5072188;28;20051;-76
2023/03/15 05:29:26;;;;;;;6.70;1.95;;;;;;;;;;5053944;28;20040;-76
2023/03/15 05:31:52;;;;;;;6.60;2.10;;;;;;;;;;5072003;28;20044;-75
2023/03/15 05:34:18;;;;;;;10.77;2.28;;;;;;;;;;5053603;28;20080;-76
2023/03/15 05:36:45;;;;;;;8.13;2.05;;;;;;;;;;5071545;28;20059;-76
2023/03/15 05:39:15;;;;;;;8.43;2.08;;;;;;;;;;5053493;28;20098;-76
2023/03/15 05:41:41;;;;;;;6.40;1.95;;;;;;;;;;5054152;28;20087;-76
2023/03/15 05:44:07;;;;;;;5.97;2.10;;;;;;;;;;5037206;28;20473;-76
2023/03/15 05:46:33;;;;;;;6.63;2.15;;;;;;;;;;5071848;28;20091;-76
2023/03/15 05:48:59;;;;;;;9.48;2.13;;;;;;;;;;5074982;28;20049;-76
2023/03/15 05:51:25;;;;;;;8.85;2.50;;;;;;;;;;5050921;28;20048;-76
2023/03/15 05:53:51;;;;;;;8.73;2.15;;;;;;;;;;5054923;28;20041;-76
2023/03/15 05:56:17;;;;;;;10.25;2.40;;;;;;;;;;5037476;28;20045;-76
2023/03/15 05:58:43;;;;;;;10.77;2.60;;;;;;;;;;5054903;28;20053;-76
2023/03/15 06:01:09;;;;;;;8.30;2.47;;;;;;;;;;5037411;28;20067;-76
2023/03/15 06:03:36;;;;;;;9.40;2.47;;;;;;;;;;5054695;28;20045;-75
2023/03/15 06:06:02;;;;;;;10.93;2.60;;;;;;;;;;5055210;28;20120;-76
2023/03/15 06:08:28;;;;;;;8.43;2.42;;;;;;;;;;5054363;28;20095;-76
2023/03/15 06:10:54;;;;;;;10.30;2.63;;;;;;;;;;5036934;28;20604;-76
2023/03/15 06:13:20;;;;;;;8.88;2.70;;;;;;;;;;5054866;28;20163;-76
2023/03/15 06:15:47;;;;;;;8.27;2.50;;;;;;;;;;5055801;28;20190;-76
2023/03/15 06:18:13;;;;;;;12.35;2.42;;;;;;;;;;5065525;28;20037;-76
2023/03/15 06:20:40;;;;;;;9.65;2.60;;;;;;;;;;5037349;28;20067;-76
2023/03/15 06:23:06;;;;;;;7.65;2.40;;;;;;;;;;5066361;28;20102;-76
2023/03/15 06:25:32;;;;;;;14.57;2.67;;;;;;;;;;5074738;28;20048;-76
2023/03/15 06:27:58;;;;;;;13.57;2.78;;;;;;;;;;5074377;28;20048;-76
2023/03/15 06:30:25;;;;;;;12.13;2.70;;;;;;;;;;5074631;28;20055;-75
2023/03/15 06:32:51;;;;;;;8.15;2.40;;;;;;;;;;5055903;28;20095;-76
2023/03/15 06:35:17;;;;;;;10.15;2.47;;;;;;;;;;5027087;28;20051;-78
2023/03/15 06:37:44;;;;;;;7.40;2.30;;;;;;;;;;5064964;28;20040;-77
2023/03/15 06:40:10;;;;;;;8.00;2.33;;;;;;;;;;5062017;28;20045;-77
2023/03/15 06:42:37;;;;;;;12.02;2.30;;;;;;;;;;5052736;28;20045;-77
2023/03/15 06:45:03;;;;;;;10.07;2.90;;;;;;;;;;5054227;28;20049;-77
2023/03/15 06:47:29;;;;;;;10.15;2.55;;;;;;;;;;5054893;28;20470;-76
2023/03/15 06:49:55;;;;;;;9.30;2.47;;;;;;;;;;5054004;28;20052;-76
2023/03/15 06:52:21;;;;;;;9.63;2.70;;;;;;;;;;5053777;28;20045;-77
2023/03/15 06:54:47;;;;;;;8.55;2.50;;;;;;;;;;5069132;28;20040;-77
2023/03/15 06:57:13;;;;;;;8.93;2.30;;;;;;;;;;5053411;28;20122;-77
2023/03/15 06:59:39;;;;;;;7.40;2.10;;;;;;;;;;5065582;28;20048;-77
2023/03/15 07:02:06;;;;;;;8.05;2.47;;;;;;;;;;5053954;28;20056;-77
2023/03/15 07:04:32;;;;;;;9.55;2.50;;;;;;;;;;5067191;28;20040;-78
2023/03/15 07:06:58;;;;;;;10.70;2.30;;;;;;;;;;5054641;28;20052;-78
2023/03/15 07:09:24;;;;;;;10.65;2.00;;;;;;;;;;5053572;28;20116;-79
2023/03/15 07:11:50;;;;;;;5.90;1.90;;;;;;;;;;5054068;28;20075;-79
2023/03/15 07:14:16;;;;;;;9.25;2.13;;;;;;;;;;5069944;28;20496;-78
2023/03/15 07:16:42;;;;;;;6.38;2.03;;;;;;;;;;5054872;28;20482;-79
2023/03/15 07:19:08;;;;;;;6.22;2.25;;;;;;;;;;5051534;28;20036;-78
2023/03/15 07:21:34;;;;;;;8.30;2.15;;;;;;;;;;5055635;28;20049;-79
2023/03/15 07:24:00;;;;;;;7.00;1.90;;;;;;;;;;5053267;28;20037;-79
2023/03/15 07:26:26;;;;;;;7.75;2.03;;;;;;;;;;5062093;28;20501;-79
2023/03/15 07:28:52;;;;;;;9.25;1.90;;;;;;;;;;5036166;28;20385;-79
2023/03/15 07:31:18;;;;;;;6.50;2.20;;;;;;;;;;5054695;28;20052;-78
2023/03/15 07:33:45;;;;;;;8.30;1.90;;;;;;;;;;5053576;28;20529;-79
2023/03/15 07:36:11;;;;;;;7.82;2.28;;;;;;;;;;5055466;28;20150;-79
2023/03/15 07:38:37;;;;;;;8.13;2.33;;;;;;;;;;5068843;28;20049;-79
2023/03/15 07:41:05;;;;;;;7.82;2.10;;;;;;;;;;5072878;28;20393;-78
2023/03/15 07:43:31;;;;;;;13.80;2.03;;;;;;;;;;5024499;28;20124;-79
2023/03/15 07:45:57;;;;;;;9.15;2.00;;;;;;;;;;5052267;28;20095;-79
2023/03/15 07:48:23;;;;;;;8.02;2.30;;;;;;;;;;5033929;28;20087;-79
2023/03/15 07:50:49;;;;;;;9.35;2.50;;;;;;;;;;5035244;28;20159;-79
2023/03/15 07:53:15;;;;;;;8.45;2.50;;;;;;;;;;5052030;28;20454;-79
2023/03/15 07:55:41;;;;;;;11.40;2.40;;;;;;;;;;5052772;28;20346;-79
2023/03/15 07:58:07;;;;;;;11.43;2.20;;;;;;;;;;5034322;28;20507;-78
2023/03/15 08:00:33;;;;;;;7.50;2.20;;;;;;;;;;5053644;28;20037;-79
2023/03/15 08:03:00;;;;;;;8.25;2.40;;;;;;;;;;5062981;28;20568;-79
2023/03/15 08:05:26;;;;;;;7.80;2.25;;;;;;;;;;5072540;28;20047;-79
2023/03/15 08:07:52;;;;;;;11.77;2.40;;;;;;;;;;5046005;28;20095;-79
2023/03/15 08:10:18;;;;;;;10.48;2.67;;;;;;;;;;5052263;28;20057;-79
2023/03/15 08:12:44;;;;;;;12.98;3.00;;;;;;;;;;5034285;28;20049;-79
2023/03/15 08:15:11;;;;;;;8.38;2.30;;;;;;;;;;5043807;28;20048;-79
2023/03/15 08:17:38;;;;;;;9.20;2.42;;;;;;;;;;5072492;28;20048;-79
2023/03/15 08:20:04;;;;;;;16.42;2.70;;;;;;;;;;5049178;28;20037;-79
2023/03/15 08:22:30;;;;;;;11.15;2.70;;;;;;;;;;5034490;28;20052;-79
2023/03/15 08:24:57;;;;;;;12.60;2.72;;;;;;;;;;5034541;28;20033;-78
2023/03/15 08:27:23;;;;;;;11.25;2.35;;;;;;;;;;5052615;28;20045;-79
2023/03/15 08:29:50;;;;;;;11.73;2.50;;;;;;;;;;5034262;28;20405;-79
2023/03/15 08:32:17;;;;;;;13.38;2.50;;;;;;;;;;5034407;28;20044;-79
2023/03/15 08:34:43;;;;;;;9.27;2.50;;;;;;;;;;5052262;28;20171;-79
2023/03/15 08:37:12;;;;;;;6.22;1.98;;;;;;;;;;5045744;28;20474;-79
2023/03/15 08:39:38;;;;;;;8.43;2.10;;;;;;;;;;5051921;28;20091;-78
2023/03/15 08:42:05;;;;;;;8.23;2.17;;;;;;;;;;5053340;28;20041;-79
2023/03/15 08:44:31;;;;;;;7.38;2.17;;;;;;;;;;5052237;28;20045;-79
2023/03/15 08:46:57;;;;;;;10.90;2.33;;;;;;;;;;5068692;28;20053;-79
2023/03/15 08:49:23;;;;;;;8.98;2.20;;;;;;;;;;5068937;28;20063;-79
2023/03/15 08:51:49;;;;;;;8.68;2.03;;;;;;;;;;5060291;28;20037;-79
2023/03/15 08:54:15;;;;;;;7.93;1.98;;;;;;;;;;5070727;28;20044;-75
2023/03/15 08:56:42;;;;;;;7.03;1.92;;;;;;;;;;5059404;28;20041;-74
2023/03/15 08:59:08;;;;;;;8.40;2.22;;;;;;;;;;5071528;28;20209;-75
2023/03/15 09:01:34;;;;;;;7.63;2.10;;;;;;;;;;5047522;28;20072;-76
2023/03/15 09:04:00;;;;;;;6.60;2.17;;;;;;;;;;5028963;28;20041;-75
2023/03/15 09:06:27;;;;;;;10.50;2.10;;;;;;;;;;5070466;28;20071;-74
2023/03/15 09:08:53;;;;;;;6.45;1.90;;;;;;;;;;5071447;28;20053;-75
2023/03/15 09:11:22;;;;;;;7.97;2.15;;;;;;;;;;5054855;28;20510;-75
2023/03/15 09:13:48;;;;;;;8.75;2.17;;;;;;;;;;5053733;28;20076;-75
2023/03/15 09:16:14;;;;;;;9.63;2.20;;;;;;;;;;5053934;28;20045;-74
2023/03/15 09:18:42;;;;;;;9.45;2.30;;;;;;;;;;5069916;28;20457;-75
2023/03/15 09:21:09;;;;;;;8.25;1.92;;;;;;;;;;5062874;28;20044;-75
2023/03/15 09:23:35;;;;;;;9.63;2.20;;;;;;;;;;5037408;28;20049;-75
2023/03/15 09:26:01;;;;;;;7.35;2.00;;;;;;;;;;5054970;28;20094;-75
2023/03/15 09:28:28;;;;;;;5.28;1.73;;;;;;;;;;5022985;28;20048;-75
2023/03/15 09:30:54;;;;;;;8.63;2.10;;;;;;;;;;5066844;28;20386;-75
2023/03/15 09:33:21;;;;;;;5.63;1.80;;;;;;;;;;5072791;28;20459;-75
2023/03/15 09:35:49;;;;;;;6.70;1.90;;;;;;;;;;5059939;28;20055;-76
2023/03/15 09:38:15;;;;;;;8.68;2.08;;;;;;;;;;5059993;28;20051;-75
2023/03/15 09:40:46;;;;;;;5.70;2.22;;;;;;;;;;5041458;28;20048;-77
2023/03/15 09:43:12;;;;;;;6.90;1.85;;;;;;;;;;5070920;28;20045;-75
2023/03/15 09:45:57;;;;;;;7.80;1.90;;;;;;;;;;5086506;28;20401;-75
2023/03/15 09:48:24;;;;;;;7.75;2.30;;;;;;;;;;5068688;28;20045;-75
2023/03/15 09:50:52;;;;;;;6.47;2.00;;;;;;;;;;5041469;28;20072;-75
2023/03/15 09:53:23;;;;;;;9.45;2.28;;;;;;;;;;5038204;28;20040;-76
2023/03/15 09:55:51;;;;;;;6.70;1.90;;;;;;;;;;5057147;28;20510;-75
2023/03/15 09:58:20;;;;;;;7.15;2.00;;;;;;;;;;5075148;28;20114;-76
2023/03/15 10:00:48;;;;;;;8.45;2.17;;;;;;;;;;5057468;28;20110;-75
2023/03/15 10:03:29;;;;;;;8.18;1.77;;;;;;;;;;5040386;28;20045;-76
2023/03/15 10:05:57;;;;;;;6.78;2.00;;;;;;;;;;5073054;28;20055;-76
2023/03/15 10:08:24;;;;;;;6.22;1.80;;;;;;;;;;5072774;28;20057;-76
2023/03/15 10:10:56;;;;;;;6.88;1.70;;;;;;;;;;5071843;28;20052;-76
2023/03/15 10:13:25;;;;;;;8.50;1.85;;;;;;;;;;5071264;28;20055;-76
2023/03/15 10:16:10;;;;;;;6.32;1.90;;;;;;;;;;5071452;28;20041;-76
2023/03/15 10:18:39;;;;;;;6.45;1.95;;;;;;;;;;5072899;28;20485;-76
2023/03/15 10:21:10;;;;;;;7.40;1.83;;;;;;;;;;5033268;28;20070;-75
2023/03/15 10:23:53;;;;;;;9.45;1.85;;;;;;;;;;5063127;28;20044;-75
2023/03/15 10:26:23;;;;;;;7.75;2.17;;;;;;;;;;5030158;28;20149;-75
2023/03/15 10:28:49;;;;;;;6.22;1.88;;;;;;;;;;5036238;28;20059;-75
2023/03/15 10:31:17;;;;;;;6.00;1.75;;;;;;;;;;5054733;28;20041;-75
2023/03/15 10:33:45;;;;;;;6.18;2.03;;;;;;;;;;5018814;28;20044;-75
2023/03/15 10:36:14;;;;;;;6.03;1.73;;;;;;;;;;5019555;28;20114;-74
2023/03/15 10:38:40;;;;;;;6.53;2.05;;;;;;;;;;5019156;28;20143;-74
2023/03/15 10:41:06;;;;;;;5.78;1.90;;;;;;;;;;5054674;28;20049;-75
2023/03/15 10:43:35;;;;;;;7.28;1.88;;;;;;;;;;5033917;28;20434;-74
2023/03/15 10:46:12;;;;;;;4.28;1.60;;;;;;;;;;5054391;28;20071;-75
2023/03/15 10:48:39;;;;;;;8.15;2.00;;;;;;;;;;5052534;28;20543;-73
2023/03/15 10:51:05;;;;;;;6.65;2.10;;;;;;;;;;5052921;28;20041;-73
2023/03/15 10:53:32;;;;;;;5.80;1.95;;;;;;;;;;5053244;28;20392;-73
2023/03/15 10:56:05;;;;;;;6.40;1.60;;;;;;;;;;5036500;28;20076;-73
2023/03/15 10:58:45;;;;;;;5.80;1.85;;;;;;;;;;5054138;28;20409;-74
2023/03/15 11:01:22;;;;;;;6.63;1.95;;;;;;;;;;5054427;28;20072;-75
2023/03/15 11:03:59;;;;;;;7.13;2.10;;;;;;;;;;5053789;28;20055;-75
2023/03/15 11:06:27;;;;;;;5.93;1.90;;;;;;;;;;5053833;28;20532;-75
2023/03/15 11:08:53;;;;;;;8.05;2.05;;;;;;;;;;5069016;28;20057;-75
2023/03/15 11:11:20;;;;;;;5.97;1.98;;;;;;;;;;5056000;28;20052;-75
2023/03/15 11:13:58;;;;;;;6.07;1.90;;;;;;;;;;5055735;28;20384;-75
2023/03/15 11:16:24;;;;;;;6.30;1.73;;;;;;;;;;5073697;28;20044;-74
2023/03/15 11:19:00;;;;;;;7.07;1.92;;;;;;;;;;5055477;28;20041;-75
2023/03/15 11:21:35;;;;;;;6.97;1.90;;;;;;;;;;5072909;28;20086;-74
2023/03/15 11:24:03;;;;;;;11.52;1.67;;;;;;;;;;5072260;28;20052;-75
2023/03/15 11:26:32;;;;;;;8.40;2.00;;;;;;;;;;5073778;28;20103;-74
2023/03/15 11:29:14;;;;;;;9.70;2.00;;;;;;;;;;5055144;28;20085;-74
2023/03/15 11:31:40;;;;;;;8.68;1.90;;;;;;;;;;5073657;28;20045;-74
2023/03/15 11:34:26;;;;;;;7.00;1.77;;;;;;;;;;5072929;28;20399;-75
2023/03/15 11:36:56;;;;;;;5.93;1.75;;;;;;;;;;5022868;28;20110;-74
2023/03/15 11:39:34;;;;;;;7.80;2.17;;;;;;;;;;5035089;28;20494;-74
2023/03/15 11:42:02;;;;;;;6.90;2.00;;;;;;;;;;5053198;28;20037;-74
2023/03/15 11:44:28;;;;;;;7.20;2.08;;;;;;;;;;5052646;28;20040;-75
2023/03/15 11:46:58;;;;;;;7.70;2.28;;;;;;;;;;5034952;28;20085;-75
2023/03/15 11:49:24;;;;;;;11.13;2.00;;;;;;;;;;5053178;28;20442;-75
2023/03/15 11:51:50;;;;;;;5.57;1.65;;;;;;;;;;5071742;28;20037;-75
2023/03/15 11:54:20;;;;;;;7.57;1.70;;;;;;;;;;5072782;28;20041;-75
2023/03/15 11:56:49;;;;;;;5.88;2.15;;;;;;;;;;5066366;28;20127;-75
2023/03/15 11:59:16;;;;;;;6.22;1.90;;;;;;;;;;5071698;28;20040;-75
2023/03/15 12:01:45;;;;;;;5.80;1.80;;;;;;;;;;5050413;28;20052;-73
2023/03/15 12:04:30;;;;;;;5.57;1.88;;;;;;;;;;5045486;28;20076;-74
2023/03/15 12:06:56;;;;;;;5.67;1.70;;;;;;;;;;5045551;28;20449;-74
2023/03/15 12:09:31;;;;;;;4.60;1.67;;;;;;;;;;5044396;28;20053;-74
2023/03/15 12:11:57;;;;;;;;;;;;;;;;;;5060888;28;20068;-73
2023/03/15 12:14:30;;;;;;;5.68;1.67;;;;;;;;;;5027678;28;19916;-74
2023/03/15 12:17:15;;;;;;;8.73;1.85;;;;;;;;;;5068028;28;20094;-75
2023/03/15 12:19:41;;;;;;;4.80;2.00;;;;;;;;;;5051210;28;20409;-75
2023/03/15 12:22:15;;;;;;;5.20;1.70;;;;;;;;;;5033079;28;20080;-75
2023/03/15 12:24:43;;;;;;;5.60;1.70;;;;;;;;;;5034901;28;20048;-75
2023/03/15 12:27:15;;;;;;;4.88;1.60;;;;;;;;;;5052503;28;20052;-74
2023/03/15 12:29:43;;;;;;;7.70;2.22;;;;;;;;;;5017928;28;20052;-76
2023/03/15 12:32:14;;;;;;;6.88;1.80;;;;;;;;;;5052342;28;20358;-76
2023/03/15 12:34:46;;;;;;;6.45;1.88;;;;;;;;;;5052111;28;20105;-76
2023/03/15 12:37:13;;;;;;;6.75;1.80;;;;;;;;;;5043308;28;20443;-76
2023/03/15 12:39:45;;;;;;;7.70;1.95;;;;;;;;;;5047192;28;20103;-76
2023/03/15 12:42:34;;;;;;;4.95;1.95;;;;;;;;;;5056836;28;20127;-76
2023/03/15 12:45:15;;;;;;;8.63;1.95;;;;;;;;;;5040186;28;20045;-76
2023/03/15 12:47:44;;;;;;;4.78;1.60;;;;;;;;;;5068914;28;20063;-76
2023/03/15 12:50:29;;;;;;;6.15;1.65;;;;;;;;;;5068521;28;20051;-76
2023/03/15 12:52:59;;;;;;;8.00;1.90;;;;;;;;;;5030687;28;20041;-76
2023/03/15 12:55:28;;;;;;;6.72;1.80;;;;;;;;;;5053829;28;20080;-76
2023/03/15 12:57:57;;;;;;;4.75;1.63;;;;;;;;;;5055985;28;20127;-77
2023/03/15 13:00:26;;;;;;;4.90;1.58;;;;;;;;;;5074487;28;20044;-77
2023/03/15 13:03:05;;;;;;;7.45;1.92;;;;;;;;;;5023439;28;20045;-78
2023/03/15 13:05:43;;;;;;;8.73;1.85;;;;;;;;;;5056559;28;20041;-75
2023/03/15 13:08:16;;;;;;;5.68;1.77;;;;;;;;;;5071075;28;20106;-75
2023/03/15 13:10:42;;;;;;;6.85;1.90;;;;;;;;;;5071364;28;20102;-76
2023/03/15 13:13:21;;;;;;;5.68;1.70;;;;;;;;;;5069894;28;20049;-75
2023/03/15 13:15:56;;;;;;;6.55;2.20;;;;;;;;;;5054887;28;20044;-75
2023/03/15 13:18:23;;;;;;;7.93;1.77;;;;;;;;;;5070038;28;20374;-75
2023/03/15 13:21:08;;;;;;;6.20;1.70;;;;;;;;;;5055377;28;20056;-75
2023/03/15 13:23:34;;;;;;;7.28;1.60;;;;;;;;;;5055368;28;20044;-75
2023/03/15 13:26:26;;;;;;;5.35;1.70;;;;;;;;;;5055813;28;20144;-75
2023/03/15 13:29:10;;;;;;;5.93;1.70;;;;;;;;;;5016625;28;20049;-75
2023/03/15 13:31:37;;;;;;;5.95;1.80;;;;;;;;;;5070636;28;20148;-75
2023/03/15 13:34:11;;;;;;;6.40;1.75;;;;;;;;;;5055486;28;20045;-75
2023/03/15 13:36:43;;;;;;;8.05;1.90;;;;;;;;;;5070652;28;20512;-76
2023/03/15 13:39:16;;;;;;;8.18;2.00;;;;;;;;;;5073178;28;20467;-75
2023/03/15 13:41:42;;;;;;;5.28;1.80;;;;;;;;;;5053750;28;20097;-76
2023/03/15 13:44:20;;;;;;;6.07;2.08;;;;;;;;;;5057112;28;20047;-76
2023/03/15 13:46:47;;;;;;;6.85;1.88;;;;;;;;;;5053903;28;20094;-76
2023/03/15 13:49:13;;;;;;;8.57;2.00;;;;;;;;;;5055061;28;20041;-76
2023/03/15 13:51:40;;;;;;;5.70;1.77;;;;;;;;;;5058720;28;20153;-76
2023/03/15 13:54:07;;;;;;;5.05;1.63;;;;;;;;;;5072100;28;20119;-75
2023/03/15 13:56:41;;;;;;;9.48;1.70;;;;;;;;;;5038912;28;20401;-76
2023/03/15 13:59:08;;;;;;;5.10;1.88;;;;;;;;;;5067201;28;20053;-76
2023/03/15 14:01:37;;;;;;;6.72;1.83;;;;;;;;;;5055756;28;20048;-76
2023/03/15 14:04:06;;;;;;;6.72;1.75;;;;;;;;;;5058547;28;20070;-75
2023/03/15 14:06:32;;;;;;;6.93;1.75;;;;;;;;;;5037123;28;20045;-75
2023/03/15 14:09:08;;;;;;;8.95;1.92;;;;;;;;;;5057653;28;20052;-75
2023/03/15 14:11:39;;;;;;;7.32;1.77;;;;;;;;;;5038613;28;20429;-75
2023/03/15 14:14:25;;;;;;;6.20;1.75;;;;;;;;;;5057840;28;20148;-76
2023/03/15 14:16:51;;;;;;;;;;;;;;;;;;5068388;28;20059;-75
2023/03/15 14:19:19;;;;;;;7.88;2.20;;;;;;;;;;5073219;28;19927;-75
2023/03/15 14:21:56;;;;;;;8.55;1.90;;;;;;;;;;5071087;28;20402;-76
2023/03/15 14:24:28;;;;;;;7.75;2.22;;;;;;;;;;5074053;28;20052;-75
2023/03/15 14:26:56;;;;;;;7.10;1.80;;;;;;;;;;5056415;28;20080;-76
2023/03/15 14:29:27;;;;;;;8.10;1.80;;;;;;;;;;5074041;28;20079;-76
2023/03/15 14:31:53;;;;;;;7.13;1.67;;;;;;;;;;5056958;28;20416;-76
2023/03/15 14:34:24;;;;;;;5.78;1.75;;;;;;;;;;5073277;28;20036;-76
2023/03/15 14:36:52;;;;;;;4.50;1.65;;;;;;;;;;5050781;28;20045;-76
2023/03/15 14:39:19;;;;;;;6.82;1.90;;;;;;;;;;5032686;28;20451;-76
2023/03/15 14:41:45;;;;;;;9.63;1.80;;;;;;;;;;5034530;28;20409;-76
2023/03/15 14:44:11;;;;;;;6.80;2.03;;;;;;;;;;5034472;28;20040;-75
2023/03/15 14:46:37;;;;;;;5.18;1.75;;;;;;;;;;5052880;28;20045;-76